CheckWX is a tool to help pilots better visualize weather data.  It is not intended as a substitute for an official pre-flight weather briefing.

03:17:35 UTC

KSYF METAR
Cheyenne County Municipal Airport
St Francis, Kansas, USA
Current

23 mins ago

KSYF 180255Z AUTO 16013KT 10SM CLR 24/11 A2983 RMK AO2 T02350111 PWINO
Observed
Sep-18 @ 02:55 UTC
Wind
  • 160° at 13 KTS
Visibility
10 SM
Flight Rules
VFR
Cloud Levels
  • Clear skies
Temperature
24°C / 75°F
Dewpoint
11°C / 52°F
Humidity
44%
Altimeter
29.83" Hg
Pressure
1010.12 hPa
Previous

43 mins ago

KSYF 180235Z AUTO 15014KT 10SM CLR 23/11 A2982 RMK AO2 T02250105 PWINO
Observed
Sep-18 @ 02:35 UTC
Wind
  • 150° at 14 KTS
Visibility
10 SM
Flight Rules
VFR
Cloud Levels
  • Clear skies
Temperature
23°C / 73°F
Dewpoint
11°C / 52°F
Humidity
47%
Altimeter
29.82" Hg
Pressure
1009.82 hPa
Previous

1 hour ago

KSYF 180215Z AUTO 15011KT 10SM CLR 23/09 A2982 RMK AO2 T02320090 PWINO
Observed
Sep-18 @ 02:15 UTC
Wind
  • 150° at 11 KTS
Visibility
10 SM
Flight Rules
VFR
Cloud Levels
  • Clear skies
Temperature
23°C / 73°F
Dewpoint
C / 48°F
Humidity
41%
Altimeter
29.82" Hg
Pressure
1009.82 hPa